createdAt,value
2019-05-21T00:01:23.822Z,15.53
2019-05-21T00:03:52.282Z,15.58
2019-05-21T00:06:20.758Z,15.56
2019-05-21T00:08:49.236Z,15.50
2019-05-21T00:11:17.688Z,15.45
2019-05-21T00:13:46.147Z,15.43
2019-05-21T00:16:14.630Z,15.29
2019-05-21T00:18:43.108Z,15.22
2019-05-21T00:21:11.581Z,15.19
2019-05-21T00:23:40.061Z,15.14
2019-05-21T00:26:08.542Z,15.32
2019-05-21T00:28:38.700Z,15.34
2019-05-21T00:31:44.140Z,15.45
2019-05-21T00:34:49.272Z,15.46
2019-05-21T00:37:53.891Z,15.40
2019-05-21T00:40:58.605Z,15.34
2019-05-21T00:43:51.503Z,15.25
2019-05-21T00:46:19.971Z,15.26
2019-05-21T00:48:48.441Z,15.19
2019-05-21T00:51:16.905Z,14.98
2019-05-21T00:53:45.388Z,14.92
2019-05-21T00:56:13.829Z,14.99
2019-05-21T00:58:42.297Z,15.04
2019-05-21T01:01:10.758Z,15.02
2019-05-21T01:03:39.235Z,15.01
2019-05-21T01:06:07.694Z,15.13
2019-05-21T01:08:36.269Z,15.19
2019-05-21T01:11:04.720Z,15.14
2019-05-21T01:13:33.195Z,15.13
2019-05-21T01:16:01.687Z,15.07
2019-05-21T01:18:30.119Z,14.88
2019-05-21T01:20:58.597Z,15.03
2019-05-21T01:23:27.055Z,14.99
2019-05-21T01:25:55.523Z,14.81
2019-05-21T01:28:24.023Z,14.74
2019-05-21T01:30:52.506Z,14.81
2019-05-21T01:33:20.952Z,14.77
2019-05-21T01:35:49.421Z,14.82
2019-05-21T01:38:17.992Z,14.75
2019-05-21T01:40:46.509Z,14.73
2019-05-21T01:43:14.955Z,14.83
2019-05-21T01:45:43.413Z,14.73
2019-05-21T01:48:11.890Z,14.68
2019-05-21T01:50:40.372Z,14.60
2019-05-21T01:53:08.838Z,14.58
2019-05-21T01:55:37.295Z,14.56
2019-05-21T01:58:05.752Z,14.51
2019-05-21T02:00:34.239Z,14.71
2019-05-21T02:03:02.690Z,14.55
2019-05-21T02:05:33.376Z,14.67
2019-05-21T02:08:01.327Z,14.56
2019-05-21T02:10:29.797Z,14.63
2019-05-21T02:12:58.290Z,14.48
2019-05-21T02:15:26.833Z,14.47
2019-05-21T02:17:55.293Z,14.49
2019-05-21T02:20:23.736Z,14.36
2019-05-21T02:22:52.192Z,14.35
2019-05-21T02:25:20.728Z,14.41
2019-05-21T02:27:49.214Z,14.36
2019-05-21T02:30:17.997Z,14.41
2019-05-21T02:32:46.450Z,14.45
2019-05-21T02:35:15.068Z,14.27
2019-05-21T02:37:43.493Z,14.23
2019-05-21T02:40:12.482Z,14.25
2019-05-21T02:42:40.978Z,14.16
2019-05-21T02:45:10.577Z,14.21
2019-05-21T02:47:39.083Z,14.25
2019-05-21T02:50:08.757Z,14.27
2019-05-21T02:52:37.187Z,14.33
2019-05-21T02:55:06.593Z,14.35
2019-05-21T02:57:43.837Z,14.27
2019-05-21T03:00:17.154Z,14.27
2019-05-21T03:02:45.602Z,14.31
2019-05-21T03:05:14.399Z,14.27
2019-05-21T03:07:42.866Z,14.12
2019-05-21T03:10:11.568Z,14.11
2019-05-21T03:12:40.888Z,14.04
2019-05-21T03:15:09.427Z,14.05
2019-05-21T03:17:37.902Z,14.06
2019-05-21T03:20:09.214Z,14.14
2019-05-21T03:22:37.749Z,14.23
2019-05-21T03:25:06.627Z,14.18
2019-05-21T03:27:35.113Z,14.09
2019-05-21T03:30:05.004Z,14.21
2019-05-21T03:32:33.483Z,14.24
2019-05-21T03:35:01.925Z,14.22
2019-05-21T03:37:30.359Z,14.21
2019-05-21T03:39:58.908Z,14.22
2019-05-21T03:42:27.366Z,14.19
2019-05-21T03:45:00.398Z,14.24
2019-05-21T03:47:26.248Z,14.21
2019-05-21T03:49:55.496Z,14.26
2019-05-21T03:52:24.031Z,14.24
2019-05-21T03:54:52.496Z,14.36
2019-05-21T03:57:20.960Z,14.35
2019-05-21T03:59:49.422Z,14.33
2019-05-21T04:02:17.945Z,14.43
2019-05-21T04:04:46.392Z,14.35
2019-05-21T04:07:16.162Z,14.37
2019-05-21T04:09:46.288Z,14.41
2019-05-21T04:12:14.807Z,14.53
2019-05-21T04:14:44.879Z,14.53
2019-05-21T04:17:17.633Z,14.52
2019-05-21T04:19:47.684Z,14.57
2019-05-21T04:22:19.111Z,14.62
2019-05-21T04:24:47.577Z,14.76
2019-05-21T04:27:16.056Z,14.76
2019-05-21T04:29:44.513Z,14.76
2019-05-21T04:32:12.943Z,14.80
2019-05-21T04:34:41.406Z,14.89
2019-05-21T04:37:12.006Z,15.07
2019-05-21T04:39:40.893Z,15.15
2019-05-21T04:42:09.863Z,15.25
2019-05-21T04:44:38.326Z,15.29
2019-05-21T04:47:06.780Z,15.46
2019-05-21T04:49:35.250Z,15.64
2019-05-21T04:52:03.687Z,15.58
2019-05-21T04:54:32.142Z,15.56
2019-05-21T04:57:00.597Z,15.45
2019-05-21T04:59:29.080Z,15.51
2019-05-21T05:01:57.563Z,15.51
2019-05-21T05:04:26.016Z,15.50
2019-05-21T05:06:54.483Z,15.65
2019-05-21T05:09:22.950Z,15.82
2019-05-21T05:11:51.395Z,15.91
2019-05-21T05:14:19.868Z,15.97
2019-05-21T05:16:48.318Z,16.13
2019-05-21T05:19:16.767Z,16.23
2019-05-21T05:21:45.238Z,16.44
2019-05-21T05:24:13.675Z,16.43
2019-05-21T05:26:42.160Z,16.34
2019-05-21T05:29:10.619Z,16.45
2019-05-21T05:31:39.089Z,16.33
2019-05-21T05:34:07.520Z,16.51
2019-05-21T05:36:36.051Z,16.74
2019-05-21T05:39:06.769Z,16.67
2019-05-21T05:41:35.212Z,16.57
2019-05-21T05:44:03.859Z,16.68
2019-05-21T05:46:32.338Z,16.84
2019-05-21T05:49:04.867Z,16.88
2019-05-21T05:51:33.371Z,17.14
2019-05-21T05:54:01.807Z,16.88
2019-05-21T05:56:30.251Z,17.10
2019-05-21T05:58:58.791Z,17.35
2019-05-21T06:01:29.046Z,17.09
2019-05-21T06:03:57.725Z,16.96
2019-05-21T06:06:26.199Z,16.90
2019-05-21T06:08:54.675Z,16.98
2019-05-21T06:11:23.131Z,16.76
2019-05-21T06:13:51.593Z,16.80
2019-05-21T06:16:20.498Z,16.75
2019-05-21T06:18:48.968Z,16.75
2019-05-21T06:21:17.443Z,17.11
2019-05-21T06:23:45.865Z,17.42
2019-05-21T06:26:14.347Z,17.65
2019-05-21T06:28:42.829Z,17.21
2019-05-21T06:31:11.299Z,17.29
2019-05-21T06:33:39.745Z,17.53
2019-05-21T06:36:08.201Z,17.55
2019-05-21T06:38:36.665Z,17.82
2019-05-21T06:41:05.144Z,17.61
2019-05-21T06:43:33.605Z,17.31
2019-05-21T06:46:02.064Z,17.60
2019-05-21T06:48:30.525Z,17.86
2019-05-21T06:50:59.042Z,18.08
2019-05-21T06:53:27.561Z,18.04
2019-05-21T06:55:56.006Z,18.14
2019-05-21T06:58:25.059Z,18.30
2019-05-21T07:00:53.527Z,18.39
2019-05-21T07:03:22.008Z,18.39
2019-05-21T07:05:58.697Z,18.47
2019-05-21T07:08:33.680Z,18.50
2019-05-21T07:10:50.823Z,18.63
2019-05-21T07:13:19.264Z,18.74
2019-05-21T07:15:47.802Z,18.44
2019-05-21T07:18:16.254Z,18.45
2019-05-21T07:20:44.763Z,18.77
2019-05-21T07:23:13.234Z,18.79
2019-05-21T07:25:41.724Z,18.91
2019-05-21T07:28:10.248Z,18.91
2019-05-21T07:30:38.679Z,19.18
2019-05-21T07:33:07.545Z,19.05
2019-05-21T07:35:36.200Z,19.36
2019-05-21T07:38:04.632Z,19.44
2019-05-21T07:40:33.140Z,19.64
2019-05-21T07:43:01.624Z,19.32
2019-05-21T07:45:30.080Z,19.48
2019-05-21T07:47:58.545Z,19.61
2019-05-21T07:50:27.004Z,19.83
2019-05-21T07:52:55.490Z,19.62
2019-05-21T07:55:23.955Z,20.03
2019-05-21T07:57:52.418Z,19.93
2019-05-21T08:00:21.716Z,19.93
2019-05-21T08:02:50.190Z,19.80
2019-05-21T08:05:18.708Z,19.83
2019-05-21T08:07:47.148Z,19.80
2019-05-21T08:10:15.754Z,19.81
2019-05-21T08:12:44.196Z,19.88
2019-05-21T08:15:13.041Z,20.04
2019-05-21T08:17:41.516Z,20.24
2019-05-21T08:20:11.649Z,20.10
2019-05-21T08:22:40.113Z,20.43
2019-05-21T08:25:08.623Z,20.58
2019-05-21T08:27:37.140Z,20.51
2019-05-21T08:30:08.750Z,20.57
2019-05-21T08:32:37.222Z,20.64
2019-05-21T08:35:06.782Z,20.57
2019-05-21T08:37:35.264Z,20.74
2019-05-21T08:40:05.816Z,20.96
2019-05-21T08:42:34.283Z,20.93
2019-05-21T08:45:03.765Z,20.86
2019-05-21T08:47:32.528Z,20.74
2019-05-21T08:50:00.965Z,20.81
2019-05-21T08:52:29.453Z,21.04
2019-05-21T08:54:57.910Z,21.14
2019-05-21T08:57:26.357Z,21.09
2019-05-21T08:59:54.970Z,21.20
2019-05-21T09:02:24.581Z,21.34
2019-05-21T09:04:53.031Z,21.28
2019-05-21T09:07:21.467Z,21.14
2019-05-21T09:09:51.755Z,21.17
2019-05-21T09:12:20.153Z,21.60
2019-05-21T09:14:48.637Z,21.74
2019-05-21T09:17:17.074Z,21.95
2019-05-21T09:19:45.542Z,22.25
2019-05-21T09:22:13.982Z,22.31
2019-05-21T09:24:42.458Z,22.44
2019-05-21T09:27:10.891Z,22.37
2019-05-21T09:29:39.328Z,21.95
2019-05-21T09:32:07.792Z,22.25
2019-05-21T09:34:48.187Z,22.09
2019-05-21T09:37:18.648Z,22.21
2019-05-21T09:39:36.632Z,22.40
2019-05-21T09:42:05.217Z,22.64
2019-05-21T09:44:33.701Z,22.80
2019-05-21T09:47:02.162Z,22.56
2019-05-21T09:49:30.607Z,22.45
2019-05-21T09:51:59.130Z,22.42
2019-05-21T09:54:27.525Z,22.66
2019-05-21T09:56:56.000Z,22.67
2019-05-21T09:59:29.880Z,23.03
2019-05-21T10:02:02.478Z,23.30
2019-05-21T10:04:30.939Z,23.28
2019-05-21T10:06:59.394Z,22.58
2019-05-21T10:09:28.089Z,22.93
2019-05-21T10:11:56.555Z,22.86
2019-05-21T10:14:25.016Z,22.75
2019-05-21T10:16:53.461Z,23.01
2019-05-21T10:19:21.931Z,22.90
2019-05-21T10:21:50.368Z,22.87
2019-05-21T10:24:18.833Z,22.94
2019-05-21T10:26:47.339Z,23.00
2019-05-21T10:29:15.813Z,22.82
2019-05-21T10:31:44.279Z,22.71
2019-05-21T10:34:13.587Z,22.69
2019-05-21T10:36:42.215Z,22.97
2019-05-21T10:39:10.903Z,23.01
2019-05-21T10:41:39.362Z,22.69
2019-05-21T10:44:07.911Z,22.81
2019-05-21T10:46:36.490Z,22.67
2019-05-21T10:49:05.313Z,22.68
2019-05-21T10:51:33.807Z,22.89
2019-05-21T10:54:02.755Z,22.93
2019-05-21T10:56:46.863Z,22.87
2019-05-21T10:59:01.450Z,22.84
2019-05-21T11:01:31.529Z,23.18
2019-05-21T11:04:13.352Z,23.51
2019-05-21T11:06:43.632Z,23.75
2019-05-21T11:09:19.882Z,23.61
2019-05-21T11:11:48.484Z,23.59
2019-05-21T11:14:17.922Z,23.48
2019-05-21T11:16:46.398Z,23.69
2019-05-21T11:19:14.831Z,24.13
2019-05-21T11:21:43.298Z,23.96
2019-05-21T11:24:11.792Z,23.98
2019-05-21T11:26:40.233Z,24.00
2019-05-21T11:29:08.660Z,23.95
2019-05-21T11:31:37.282Z,23.66
2019-05-21T11:34:05.805Z,23.73
2019-05-21T11:36:34.256Z,24.03
2019-05-21T11:39:04.582Z,24.24
2019-05-21T11:41:33.133Z,24.24
2019-05-21T11:44:01.614Z,24.07
2019-05-21T11:46:30.153Z,24.10
2019-05-21T11:48:58.614Z,24.05
2019-05-21T11:51:27.091Z,24.06
2019-05-21T11:53:55.849Z,24.27
2019-05-21T11:56:24.335Z,24.05
2019-05-21T11:58:52.815Z,24.36
2019-05-21T12:01:21.244Z,24.22
2019-05-21T12:03:49.683Z,24.24
2019-05-21T12:06:18.226Z,24.63
2019-05-21T12:08:56.382Z,24.58
2019-05-21T12:11:17.128Z,24.54
2019-05-21T12:13:45.787Z,24.33
2019-05-21T12:16:14.222Z,24.66
2019-05-21T12:18:42.673Z,24.52
2019-05-21T12:21:11.224Z,24.67
2019-05-21T12:23:39.724Z,24.39
2019-05-21T12:26:08.128Z,24.66
2019-05-21T12:28:36.599Z,24.71
2019-05-21T12:31:05.170Z,24.97
2019-05-21T12:33:35.169Z,25.20
2019-05-21T12:36:03.887Z,25.31
2019-05-21T12:38:32.328Z,25.48
2019-05-21T12:41:00.788Z,25.22
2019-05-21T12:43:29.245Z,24.93
2019-05-21T12:45:57.695Z,24.76
2019-05-21T12:48:26.133Z,24.55
2019-05-21T12:50:54.695Z,24.91
2019-05-21T12:53:23.171Z,24.64
2019-05-21T12:55:51.679Z,25.09
2019-05-21T12:58:20.153Z,25.24
2019-05-21T13:00:48.666Z,24.88
2019-05-21T13:03:17.122Z,24.76
2019-05-21T13:05:45.572Z,24.88
2019-05-21T13:08:14.047Z,25.16
2019-05-21T13:10:42.540Z,25.09
2019-05-21T13:13:11.016Z,25.24
2019-05-21T13:15:39.476Z,25.22
2019-05-21T13:18:07.907Z,25.39
2019-05-21T13:20:36.419Z,25.24
2019-05-21T13:23:05.167Z,25.47
2019-05-21T13:25:34.016Z,24.98
2019-05-21T13:28:02.469Z,25.26
2019-05-21T13:30:30.953Z,25.32
2019-05-21T13:32:59.422Z,25.41
2019-05-21T13:35:27.872Z,25.25
2019-05-21T13:37:56.301Z,25.16
2019-05-21T13:40:24.817Z,25.02
2019-05-21T13:42:53.309Z,24.73
2019-05-21T13:45:21.746Z,24.84
2019-05-21T13:47:50.265Z,24.77
2019-05-21T13:50:18.784Z,24.83
2019-05-21T13:52:47.252Z,25.05
2019-05-21T13:55:15.851Z,25.08
2019-05-21T13:57:44.344Z,24.81
2019-05-21T14:00:19.585Z,24.70
2019-05-21T14:02:48.036Z,24.95
2019-05-21T14:05:16.903Z,25.08
2019-05-21T14:07:45.368Z,24.99
2019-05-21T14:10:20.184Z,25.02
2019-05-21T14:12:45.931Z,25.32
2019-05-21T14:15:14.513Z,25.56
2019-05-21T14:17:42.954Z,25.73
2019-05-21T14:20:12.674Z,25.93
2019-05-21T14:22:41.143Z,25.86
2019-05-21T14:25:10.258Z,25.34
2019-05-21T14:27:44.270Z,25.32
2019-05-21T14:30:09.915Z,25.15
2019-05-21T14:32:38.399Z,24.99
2019-05-21T14:35:07.174Z,24.65
2019-05-21T14:37:35.657Z,24.54
2019-05-21T14:40:09.503Z,24.45
2019-05-21T14:42:38.025Z,24.44
2019-05-21T14:45:07.836Z,24.23
2019-05-21T14:47:36.243Z,24.31
2019-05-21T14:50:08.207Z,24.39
2019-05-21T14:52:36.726Z,24.38
2019-05-21T14:55:08.569Z,24.28
2019-05-21T14:57:37.008Z,23.92
2019-05-21T15:00:09.114Z,23.90
2019-05-21T15:02:37.620Z,23.92
2019-05-21T15:05:06.498Z,23.99
2019-05-21T15:07:34.936Z,23.95
2019-05-21T15:10:03.497Z,23.81
2019-05-21T15:12:32.019Z,23.79
2019-05-21T15:15:00.466Z,23.71
2019-05-21T15:17:28.949Z,23.65
2019-05-21T15:19:59.039Z,23.66
2019-05-21T15:22:27.583Z,23.90
2019-05-21T15:24:56.041Z,24.24
2019-05-21T15:27:24.467Z,24.60
2019-05-21T15:29:52.933Z,24.82
2019-05-21T15:32:21.396Z,24.84
2019-05-21T15:34:49.837Z,24.97
2019-05-21T15:37:18.336Z,24.85
2019-05-21T15:39:47.056Z,24.83
2019-05-21T15:42:15.532Z,24.78
2019-05-21T15:44:44.003Z,25.01
2019-05-21T15:47:12.495Z,25.09
2019-05-21T15:49:40.930Z,25.36
2019-05-21T15:52:09.419Z,25.64
2019-05-21T15:54:37.910Z,26.40
2019-05-21T15:57:06.399Z,26.99
2019-05-21T15:59:34.962Z,26.38
2019-05-21T16:02:03.533Z,26.39
2019-05-21T16:04:32.019Z,26.35
2019-05-21T16:07:00.432Z,26.64
2019-05-21T16:09:28.964Z,26.87
2019-05-21T16:11:58.582Z,26.96
2019-05-21T16:14:27.035Z,26.40
2019-05-21T16:16:55.515Z,26.10
2019-05-21T16:19:24.037Z,26.30
2019-05-21T16:21:52.492Z,26.36
2019-05-21T16:24:20.934Z,26.10
2019-05-21T16:26:49.424Z,25.86
2019-05-21T16:29:17.888Z,25.30
2019-05-21T16:31:46.333Z,24.87
2019-05-21T16:34:14.827Z,24.51
2019-05-21T16:36:43.485Z,24.46
2019-05-21T16:39:13.619Z,25.35
2019-05-21T16:41:45.159Z,26.46
2019-05-21T16:44:12.283Z,26.81
2019-05-21T16:46:42.734Z,26.58
2019-05-21T16:49:11.257Z,25.65
2019-05-21T16:51:43.411Z,25.15
2019-05-21T16:54:10.887Z,24.86
2019-05-21T16:56:39.333Z,24.44
2019-05-21T16:59:07.885Z,24.25
2019-05-21T17:01:36.364Z,24.00
2019-05-21T17:04:04.808Z,23.96
2019-05-21T17:06:33.277Z,23.56
2019-05-21T17:09:01.721Z,23.68
2019-05-21T17:11:30.187Z,23.53
2019-05-21T17:13:58.691Z,23.38
2019-05-21T17:16:27.160Z,23.44
2019-05-21T17:18:55.658Z,23.42
2019-05-21T17:21:24.104Z,23.22
2019-05-21T17:23:52.666Z,23.29
2019-05-21T17:26:21.141Z,23.24
2019-05-21T17:28:49.596Z,23.35
2019-05-21T17:31:19.112Z,23.33
2019-05-21T17:33:47.653Z,23.38
2019-05-21T17:36:16.144Z,23.22
2019-05-21T17:38:44.901Z,23.23
2019-05-21T17:41:13.431Z,23.11
2019-05-21T17:43:42.050Z,23.09
2019-05-21T17:46:10.506Z,23.19
2019-05-21T17:48:39.053Z,23.09
2019-05-21T17:51:09.104Z,23.12
2019-05-21T17:53:37.863Z,23.11
2019-05-21T17:56:06.434Z,23.04
2019-05-21T17:58:34.913Z,23.04
2019-05-21T18:01:07.931Z,23.06
2019-05-21T18:03:36.432Z,22.97
2019-05-21T18:06:07.011Z,23.07
2019-05-21T18:08:35.920Z,22.80
2019-05-21T18:11:04.673Z,22.69
2019-05-21T18:13:34.147Z,22.64
2019-05-21T18:16:03.606Z,22.60
2019-05-21T18:18:32.668Z,22.44
2019-05-21T18:21:02.177Z,22.36
2019-05-21T18:23:30.658Z,22.32
2019-05-21T18:25:59.150Z,22.30
2019-05-21T18:28:27.612Z,22.27
2019-05-21T18:30:56.289Z,22.24
2019-05-21T18:33:24.786Z,22.17
2019-05-21T18:35:53.263Z,22.12
2019-05-21T18:38:21.727Z,22.19
2019-05-21T18:40:50.178Z,22.14
2019-05-21T18:43:18.647Z,22.10
2019-05-21T18:45:47.136Z,22.06
2019-05-21T18:48:15.646Z,22.09
2019-05-21T18:50:44.192Z,22.09
2019-05-21T18:53:12.676Z,22.03
2019-05-21T18:55:41.123Z,21.96
2019-05-21T18:58:09.670Z,21.80
2019-05-21T19:00:38.183Z,21.80
2019-05-21T19:03:06.724Z,21.66
2019-05-21T19:05:35.156Z,21.67
2019-05-21T19:08:03.713Z,21.59
2019-05-21T19:10:32.167Z,21.51
2019-05-21T19:13:01.287Z,21.49
2019-05-21T19:15:30.223Z,21.32
2019-05-21T19:17:58.670Z,21.30
2019-05-21T19:20:27.131Z,21.24
2019-05-21T19:22:55.682Z,21.30
2019-05-21T19:25:25.515Z,21.33
2019-05-21T19:27:54.037Z,21.30
2019-05-21T19:30:22.634Z,21.22
2019-05-21T19:32:51.104Z,21.14
2019-05-21T19:35:19.554Z,21.08
2019-05-21T19:37:48.027Z,21.13
2019-05-21T19:40:16.638Z,21.09
2019-05-21T19:42:54.375Z,21.06
2019-05-21T19:45:17.145Z,20.99
2019-05-21T19:47:45.593Z,21.04
2019-05-21T19:50:14.611Z,20.99
2019-05-21T19:52:43.063Z,20.95
2019-05-21T19:55:11.875Z,20.81
2019-05-21T19:57:41.990Z,20.84
2019-05-21T20:00:11.069Z,20.82
2019-05-21T20:02:39.698Z,20.74
2019-05-21T20:05:09.083Z,20.87
2019-05-21T20:07:37.698Z,20.69
2019-05-21T20:10:09.031Z,20.65
2019-05-21T20:12:37.556Z,20.12
2019-05-21T20:15:09.025Z,19.86
2019-05-21T20:17:38.635Z,19.79
2019-05-21T20:20:09.065Z,19.49
2019-05-21T20:22:37.796Z,19.36
2019-05-21T20:25:08.454Z,19.02
2019-05-21T20:27:37.067Z,18.75
2019-05-21T20:30:12.616Z,18.54
2019-05-21T20:32:40.651Z,18.61
2019-05-21T20:35:11.998Z,18.25
2019-05-21T20:37:41.157Z,18.26
2019-05-21T20:40:11.231Z,18.22
2019-05-21T20:42:41.152Z,18.20
2019-05-21T20:45:12.817Z,17.98
2019-05-21T20:47:41.334Z,17.98
2019-05-21T20:50:12.526Z,18.02
2019-05-21T20:52:42.111Z,17.92
2019-05-21T20:55:11.096Z,18.05
2019-05-21T20:57:39.716Z,18.02
2019-05-21T21:00:10.757Z,17.80
2019-05-21T21:02:40.765Z,17.87
2019-05-21T21:05:12.012Z,17.79
2019-05-21T21:07:41.511Z,17.79
2019-05-21T21:10:11.956Z,17.74
2019-05-21T21:12:41.289Z,17.70
2019-05-21T21:15:11.567Z,17.71
2019-05-21T21:17:40.021Z,17.61
2019-05-21T21:20:08.603Z,17.43
2019-05-21T21:22:37.041Z,17.34
2019-05-21T21:25:06.680Z,17.27
2019-05-21T21:27:36.190Z,17.29
2019-05-21T21:30:07.677Z,17.35
2019-05-21T21:32:36.374Z,17.27
2019-05-21T21:35:06.536Z,17.20
2019-05-21T21:37:35.010Z,17.13
2019-05-21T21:40:06.075Z,17.22
2019-05-21T21:42:34.538Z,17.41
2019-05-21T21:45:03.271Z,17.34
2019-05-21T21:47:31.733Z,17.29
2019-05-21T21:50:01.031Z,17.26
2019-05-21T21:52:30.626Z,17.22
2019-05-21T21:54:59.661Z,17.36
2019-05-21T21:57:28.145Z,17.27
2019-05-21T21:59:56.738Z,17.26
2019-05-21T22:02:28.542Z,17.25
2019-05-21T22:04:57.654Z,17.23
2019-05-21T22:07:26.486Z,17.22
2019-05-21T22:09:55.733Z,17.11
2019-05-21T22:12:24.735Z,17.22
2019-05-21T22:14:58.557Z,17.23
2019-05-21T22:17:27.419Z,17.17
2019-05-21T22:19:56.465Z,17.36
2019-05-21T22:22:25.835Z,17.31
2019-05-21T22:24:54.520Z,17.31
2019-05-21T22:27:22.979Z,17.33
2019-05-21T22:29:51.441Z,17.17
2019-05-21T22:32:19.906Z,17.16
2019-05-21T22:34:48.417Z,17.04
2019-05-21T22:37:18.505Z,17.15
2019-05-21T22:39:48.051Z,17.13
2019-05-21T22:42:16.956Z,17.29
2019-05-21T22:44:45.871Z,17.23
2019-05-21T22:47:15.126Z,17.11
2019-05-21T22:49:43.557Z,17.10
2019-05-21T22:52:12.540Z,17.12
2019-05-21T22:54:40.980Z,17.12
2019-05-21T22:57:09.450Z,17.03
2019-05-21T22:59:37.899Z,17.12
2019-05-21T23:02:08.256Z,17.10
2019-05-21T23:04:36.851Z,17.12
2019-05-21T23:07:06.957Z,17.16
2019-05-21T23:09:35.686Z,17.17
2019-05-21T23:12:04.395Z,17.14
2019-05-21T23:14:33.108Z,17.15
2019-05-21T23:17:01.763Z,17.26
2019-05-21T23:19:31.590Z,17.32
2019-05-21T23:22:00.917Z,17.33
2019-05-21T23:24:29.666Z,17.20
2019-05-21T23:26:58.879Z,17.21
2019-05-21T23:29:27.761Z,17.23
2019-05-21T23:31:56.293Z,17.21
2019-05-21T23:34:25.003Z,17.20
2019-05-21T23:36:55.295Z,17.14
2019-05-21T23:39:26.185Z,17.13
2019-05-21T23:41:55.238Z,17.11
2019-05-21T23:44:24.240Z,17.13
2019-05-21T23:46:52.905Z,17.08
2019-05-21T23:49:21.536Z,17.06
2019-05-21T23:51:49.986Z,17.09
2019-05-21T23:54:18.508Z,17.08
2019-05-21T23:56:47.713Z,17.10
2019-05-21T23:59:16.247Z,17.01
